Time;durP1;ratioP1;P1;durP2;ratioP2;P2;SDS_P1;SDS_P2;PMS_P1;PMS_P2;Temp;Humidity;BMP_temperature;BMP_pressure;BME280_temperature;BME280_humidity;BME280_pressure;Samples;Min_cycle;Max_cycle;Signal;HPM_P1;HPM_P2
2023/01/24 00:01:40;;;;;;;143.38;27.58;;;;;;;-1.24;100.00;96659.28;4973174;28;20105;-77
2023/01/24 00:04:06;;;;;;;115.07;26.75;;;;;;;-1.27;100.00;96664.00;4955985;28;20047;-76
2023/01/24 00:06:31;;;;;;;125.63;28.65;;;;;;;-1.23;100.00;96655.75;4980554;28;20478;-77
2023/01/24 00:08:57;;;;;;;107.47;26.17;;;;;;;-1.22;100.00;96662.53;4976662;28;20039;-77
2023/01/24 00:11:22;;;;;;;116.80;26.13;;;;;;;-1.26;100.00;96658.66;4977538;28;20551;-76
2023/01/24 00:13:48;;;;;;;119.00;25.10;;;;;;;-1.22;100.00;96666.91;4971333;28;20082;-77
2023/01/24 00:16:15;;;;;;;116.97;24.50;;;;;;;-1.23;100.00;96671.22;4974052;28;20043;-76
2023/01/24 00:18:41;;;;;;;126.25;26.50;;;;;;;-1.23;100.00;96666.06;4975240;28;20039;-77
2023/01/24 00:21:14;;;;;;;129.98;26.33;;;;;;;-1.20;100.00;96672.69;4977253;28;20039;-76
2023/01/24 00:23:48;;;;;;;111.78;26.55;;;;;;;-1.22;100.00;96678.03;4974327;28;20054;-77
2023/01/24 00:26:14;;;;;;;125.25;26.88;;;;;;;-1.24;100.00;96674.78;4971260;28;20114;-77
2023/01/24 00:28:40;;;;;;;137.80;27.15;;;;;;;-1.25;100.00;96673.19;4962109;28;20043;-77
2023/01/24 00:31:06;;;;;;;122.07;26.67;;;;;;;-1.25;100.00;96685.28;4972411;28;20042;-77
2023/01/24 00:33:32;;;;;;;114.28;24.75;;;;;;;-1.28;100.00;96668.38;4982416;28;20097;-77
2023/01/24 00:35:58;;;;;;;132.45;26.40;;;;;;;-1.17;100.00;96674.13;4974000;28;20708;-77
2023/01/24 00:38:24;;;;;;;124.82;26.23;;;;;;;-1.22;100.00;96678.03;4974183;28;20050;-77
2023/01/24 00:40:50;;;;;;;134.00;28.25;;;;;;;-1.19;100.00;96678.66;4975975;28;20038;-77
2023/01/24 00:43:16;;;;;;;118.70;26.75;;;;;;;-1.27;100.00;96682.06;4976897;28;20038;-77
2023/01/24 00:45:44;;;;;;;147.30;27.95;;;;;;;-1.23;100.00;96686.72;4956173;28;20047;-77
2023/01/24 00:48:10;;;;;;;136.00;28.90;;;;;;;-1.19;100.00;96676.88;4977670;28;20437;-77
2023/01/24 00:50:36;;;;;;;142.90;28.08;;;;;;;-1.22;100.00;96678.03;4972364;28;20046;-77
2023/01/24 00:53:02;;;;;;;116.15;24.83;;;;;;;-1.15;100.00;96672.19;4979294;28;20041;-77
2023/01/24 00:55:28;;;;;;;131.63;26.58;;;;;;;-1.22;100.00;96678.03;4979966;28;20062;-77
2023/01/24 00:57:54;;;;;;;135.52;25.70;;;;;;;-1.15;100.00;96679.94;4977049;28;20043;-77
2023/01/24 01:00:20;;;;;;;139.45;28.38;;;;;;;-1.20;100.00;96680.44;4974718;28;20061;-77
2023/01/24 01:02:47;;;;;;;133.35;28.02;;;;;;;-1.17;100.00;96679.31;4982515;28;20046;-76
2023/01/24 01:05:12;;;;;;;140.13;28.20;;;;;;;-1.15;100.00;96687.69;4976584;28;20082;-76
2023/01/24 01:07:38;;;;;;;142.18;26.42;;;;;;;-1.13;100.00;96685.75;4962338;28;20082;-77
2023/01/24 01:10:04;;;;;;;134.68;27.42;;;;;;;-1.14;100.00;96691.88;4978695;28;20113;-76
2023/01/24 01:12:30;;;;;;;122.18;25.13;;;;;;;-1.18;100.00;96693.19;4978612;28;20043;-76
2023/01/24 01:14:55;;;;;;;119.65;25.02;;;;;;;-1.14;100.00;96684.13;4973619;28;20042;-76
2023/01/24 01:17:21;;;;;;;120.65;25.15;;;;;;;-1.16;100.00;96691.25;4984071;28;20038;-76
2023/01/24 01:19:50;;;;;;;129.88;27.38;;;;;;;-1.17;100.00;96694.81;4973803;28;20086;-76
2023/01/24 01:22:16;;;;;;;117.43;27.10;;;;;;;-1.16;100.00;96692.06;4978301;28;20090;-76
2023/01/24 01:24:42;;;;;;;148.60;27.48;;;;;;;-1.17;100.00;96694.81;4973324;28;20043;-76
2023/01/24 01:27:07;;;;;;;138.27;27.58;;;;;;;-1.17;100.00;96702.56;4976606;28;20471;-77
2023/01/24 01:29:34;;;;;;;140.30;27.67;;;;;;;-1.14;100.00;96689.31;4974613;28;20097;-77
2023/01/24 01:31:59;;;;;;;140.15;27.83;;;;;;;-1.20;100.00;96695.13;4961831;28;20038;-76
2023/01/24 01:34:25;;;;;;;129.98;26.80;;;;;;;-1.16;100.00;96696.44;4981156;28;20560;-77
2023/01/24 01:36:51;;;;;;;144.95;27.88;;;;;;;-1.18;100.00;96700.94;4980098;28;20544;-76
2023/01/24 01:39:16;;;;;;;134.18;29.40;;;;;;;-1.25;100.00;96693.84;4977654;28;20514;-77
2023/01/24 01:41:42;;;;;;;140.77;25.88;;;;;;;-1.15;100.00;96690.25;4979318;28;21384;-76
2023/01/24 01:44:37;;;;;;;118.78;26.23;;;;;;;-1.19;100.00;96696.72;4985184;28;20047;-77
2023/01/24 01:47:27;;;;;;;128.68;25.95;;;;;;;-1.22;100.00;96693.53;4961376;28;20050;-76
2023/01/24 01:50:01;;;;;;;121.63;24.00;;;;;;;-1.18;100.00;96693.19;4980444;28;20077;-76
2023/01/24 01:52:31;;;;;;;138.38;25.75;;;;;;;-1.20;100.00;96695.13;4979758;28;20039;-76
2023/01/24 01:55:01;;;;;;;121.93;24.88;;;;;;;-1.20;100.00;96689.97;4977031;28;20134;-76
2023/01/24 01:57:30;;;;;;;119.95;25.10;;;;;;;-1.16;100.00;96696.44;4970871;28;20042;-76
2023/01/24 02:00:01;;;;;;;120.15;25.25;;;;;;;-1.17;100.00;96687.84;4974629;28;20113;-77
2023/01/24 02:02:28;;;;;;;105.53;22.08;;;;;;;-1.13;100.00;96685.75;4981867;28;20065;-76
2023/01/24 02:05:01;;;;;;;122.18;25.30;;;;;;;-1.16;100.00;96691.25;4981633;28;20046;-77
2023/01/24 02:07:42;;;;;;;112.35;24.48;;;;;;;-1.19;100.00;96691.56;4965122;28;20042;-76
2023/01/24 02:10:08;;;;;;;94.45;21.60;;;;;;;-1.17;100.00;96684.47;4975837;28;20035;-77
2023/01/24 02:12:40;;;;;;;124.88;24.92;;;;;;;-1.23;100.00;96689.31;4982912;28;20311;-76
2023/01/24 02:17:54;;;;;;;87.13;21.83;;;;;;;-1.15;100.00;96698.00;4976072;28;21373;-76
2023/01/24 02:20:42;;;;;;;107.47;22.90;;;;;;;-1.09;100.00;96682.66;4973299;28;20043;-77
2023/01/24 02:23:31;;;;;;;103.80;22.58;;;;;;;-1.10;100.00;96691.38;4981013;28;20042;-77
2023/01/24 02:26:07;;;;;;;88.85;19.70;;;;;;;-1.13;100.00;96683.16;4982914;28;20548;-77
2023/01/24 02:28:33;;;;;;;83.53;20.65;;;;;;;-1.06;100.00;96691.88;4967462;28;20104;-77
2023/01/24 02:31:00;;;;;;;76.22;20.15;;;;;;;-1.14;100.00;96689.31;4974448;28;20043;-77
2023/01/24 02:33:26;;;;;;;87.05;21.08;;;;;;;-1.12;100.00;96682.19;4981988;28;20038;-77
2023/01/24 02:36:12;;;;;;;74.40;19.48;;;;;;;-1.17;100.00;96689.63;4964227;28;20038;-77
2023/01/24 02:38:40;;;;;;;69.13;19.58;;;;;;;-1.16;100.00;96680.94;4979166;28;20038;-77
2023/01/24 02:41:07;;;;;;;84.18;21.17;;;;;;;-1.12;100.00;96692.50;4974785;28;20066;-77
2023/01/24 02:43:45;;;;;;;75.95;19.90;;;;;;;-1.16;100.00;96675.75;4962759;28;20050;-77
2023/01/24 02:46:11;;;;;;;89.97;20.27;;;;;;;-1.10;100.00;96690.59;4975709;28;20039;-77
2023/01/24 02:48:36;;;;;;;91.90;21.48;;;;;;;-1.14;100.00;96678.97;4973542;28;20039;-77
2023/01/24 02:53:46;;;;;;;73.32;19.58;;;;;;;-1.13;100.00;96680.59;4976606;28;20039;-77
2023/01/24 02:58:56;;;;;;;71.72;19.15;;;;;;;-1.10;100.00;96681.03;4984420;28;20043;-77
2023/01/24 03:01:22;;;;;;;68.72;18.58;;;;;;;-1.07;100.00;96682.50;4978179;28;20038;-78
2023/01/24 03:03:49;;;;;;;82.38;19.52;;;;;;;-1.10;100.00;96680.25;4982268;28;20043;-76
2023/01/24 03:06:16;;;;;;;71.40;19.33;;;;;;;-1.12;100.00;96683.00;4976428;28;20509;-76
2023/01/24 03:08:43;;;;;;;71.18;18.85;;;;;;;-1.09;100.00;96684.47;4972990;28;20031;-76
2023/01/24 03:11:10;;;;;;;71.50;20.95;;;;;;;-1.09;100.00;96681.88;4981287;28;20042;-76
2023/01/24 03:35:32;;;;;;;64.68;17.85;;;;;;;-1.07;100.00;96691.03;4973698;28;20089;-76
2023/01/24 03:40:42;;;;;;;54.95;17.02;;;;;;;-1.05;100.00;96698.63;4975566;28;20486;-77
2023/01/24 03:43:08;;;;;;;65.68;17.52;;;;;;;-1.08;100.00;96699.78;4976545;28;20058;-77
2023/01/24 03:45:37;;;;;;;58.05;17.13;;;;;;;-1.06;100.00;96708.16;4970351;28;20038;-77
2023/01/24 03:48:12;;;;;;;68.90;18.08;;;;;;;-1.06;100.00;96713.34;4978334;28;20045;-77
2023/01/24 03:53:27;;;;;;;56.47;16.70;;;;;;;-1.02;100.00;96724.16;4974662;28;20043;-77
2023/01/24 03:55:59;;;;;;;66.10;17.90;;;;;;;-1.03;100.00;96725.13;4973227;28;20043;-77
2023/01/24 03:58:26;;;;;;;57.45;16.52;;;;;;;-1.03;100.00;96727.72;4973528;28;20047;-77
2023/01/24 04:00:53;;;;;;;58.58;16.65;;;;;;;-1.03;100.00;96721.72;4975564;28;20038;-77
2023/01/24 04:03:19;;;;;;;54.33;16.85;;;;;;;-1.02;100.00;96726.75;4973591;28;20094;-77
2023/01/24 04:05:46;;;;;;;53.78;15.70;;;;;;;-1.06;100.00;96717.72;4977291;28;20481;-77
2023/01/24 04:08:12;;;;;;;59.08;17.45;;;;;;;-1.01;100.00;96725.75;4972562;28;20101;-77
2023/01/24 04:10:37;;;;;;;56.78;15.85;;;;;;;-1.02;100.00;96723.34;4973965;28;20125;-77
2023/01/24 04:13:03;;;;;;;54.20;16.42;;;;;;;-1.03;100.00;96724.28;4974600;28;20051;-77
2023/01/24 04:15:31;;;;;;;56.50;16.20;;;;;;;-1.03;100.00;96712.19;4978018;28;20035;-77
2023/01/24 04:17:58;;;;;;;50.30;14.18;;;;;;;-1.00;100.00;96722.19;4977000;28;20497;-77
2023/01/24 04:20:25;;;;;;;43.13;14.23;;;;;;;-0.98;100.00;96725.41;4965083;28;20046;-77
2023/01/24 04:22:51;;;;;;;56.78;16.75;;;;;;;-1.04;100.00;96715.75;4977325;28;20074;-77
2023/01/24 04:25:17;;;;;;;56.30;17.02;;;;;;;-1.01;100.00;96712.81;4975274;28;20043;-77
2023/01/24 04:27:42;;;;;;;71.07;17.83;;;;;;;-0.99;100.00;96713.50;4955190;28;20495;-77
2023/01/24 04:30:11;;;;;;;69.05;20.00;;;;;;;-1.02;100.00;96713.81;4962059;28;20054;-77
2023/01/24 04:32:37;;;;;;;65.05;18.60;;;;;;;-1.06;100.00;96722.88;4970552;28;20131;-77
2023/01/24 04:35:04;;;;;;;63.15;18.80;;;;;;;-1.06;100.00;96717.72;4981782;28;21090;-79
2023/01/24 04:37:30;;;;;;;79.43;20.70;;;;;;;-1.09;100.00;96712.88;4979733;28;20102;-79
2023/01/24 04:39:56;;;;;;;73.30;20.10;;;;;;;-1.09;100.00;96720.63;4984799;28;20046;-79
2023/01/24 04:42:21;;;;;;;80.68;20.17;;;;;;;-1.11;100.00;96717.38;4965546;28;20039;-79
2023/01/24 04:44:47;;;;;;;60.60;18.85;;;;;;;-1.10;100.00;96716.41;4968191;28;20050;-78
2023/01/24 04:47:13;;;;;;;62.53;18.83;;;;;;;-1.13;100.00;96711.59;4980111;28;20046;-78
2023/01/24 04:49:40;;;;;;;62.70;18.45;;;;;;;-1.09;100.00;96712.88;4981912;28;20524;-78
2023/01/24 04:52:06;;;;;;;65.35;17.63;;;;;;;-1.07;100.00;96721.25;4969544;28;20046;-77
2023/01/24 04:54:31;;;;;;;51.67;16.05;;;;;;;-1.08;100.00;96714.47;4977441;28;20035;-77
2023/01/24 04:56:57;;;;;;;62.40;18.58;;;;;;;-1.12;100.00;96715.75;4985473;28;20086;-78
2023/01/24 04:59:22;;;;;;;54.55;15.85;;;;;;;-1.07;100.00;96716.09;4985407;28;20038;-78
2023/01/24 05:01:48;;;;;;;53.40;15.77;;;;;;;-1.11;100.00;96713.00;4983121;28;20041;-77
2023/01/24 05:04:14;;;;;;;62.67;15.23;;;;;;;-1.08;100.00;96714.47;4984989;28;20117;-77
2023/01/24 05:06:40;;;;;;;54.03;15.98;;;;;;;-1.06;100.00;96717.72;4982714;28;21768;-78
2023/01/24 05:09:05;;;;;;;51.45;16.13;;;;;;;-1.03;100.00;96722.53;4981752;28;20050;-78
2023/01/24 05:11:31;;;;;;;54.58;16.30;;;;;;;-1.02;100.00;96724.16;4989524;28;20391;-78
2023/01/24 05:13:56;;;;;;;55.05;15.80;;;;;;;-1.07;100.00;96726.41;4983024;28;20410;-77
2023/01/24 05:16:22;;;;;;;59.60;16.58;;;;;;;-1.01;100.00;96730.91;4962795;28;20042;-77
2023/01/24 05:18:48;;;;;;;54.53;16.23;;;;;;;-1.03;100.00;96724.28;4979616;28;20050;-77
2023/01/24 05:21:16;;;;;;;53.50;16.98;;;;;;;-0.98;100.00;96725.41;4981817;28;20061;-78
2023/01/24 05:23:42;;;;;;;72.15;18.42;;;;;;;-1.02;100.00;96726.75;4985711;28;20046;-78
2023/01/24 05:26:08;;;;;;;64.65;16.55;;;;;;;-1.00;100.00;96722.19;4976943;28;20046;-77
2023/01/24 05:28:34;;;;;;;67.50;17.35;;;;;;;-1.10;100.00;96731.94;4984091;28;20042;-77
2023/01/24 05:31:01;;;;;;;47.58;15.27;;;;;;;-1.06;100.00;96728.03;4969436;28;20042;-78
2023/01/24 05:33:27;;;;;;;66.13;17.63;;;;;;;-0.99;100.00;96739.31;4977868;28;20039;-77
2023/01/24 05:36:04;;;;;;;55.42;16.13;;;;;;;-0.97;100.00;96742.53;4960543;28;20046;-78
2023/01/24 05:38:30;;;;;;;62.67;16.88;;;;;;;-1.04;100.00;96736.41;4978471;28;20047;-77
2023/01/24 05:41:04;;;;;;;56.78;16.90;;;;;;;-1.07;100.00;96747.09;4977399;28;20053;-78
2023/01/24 05:43:30;;;;;;;63.33;16.45;;;;;;;-1.03;100.00;96743.22;4980677;28;20098;-77
2023/01/24 05:46:00;;;;;;;65.28;17.02;;;;;;;-1.02;100.00;96744.81;4985782;28;20145;-77
2023/01/24 05:48:27;;;;;;;63.35;17.25;;;;;;;-0.94;100.00;96742.19;4980102;28;20035;-77
2023/01/24 05:50:57;;;;;;;61.95;16.65;;;;;;;-0.98;100.00;96746.09;4986772;28;20042;-77
2023/01/24 05:53:23;;;;;;;65.25;16.63;;;;;;;-1.00;100.00;96753.22;4993581;28;20041;-78
2023/01/24 05:55:54;;;;;;;56.10;16.20;;;;;;;-1.00;100.00;96753.22;4982238;28;20054;-77
2023/01/24 05:58:20;;;;;;;58.63;15.95;;;;;;;-1.00;100.00;96753.22;4981480;28;20042;-77
2023/01/24 06:00:45;;;;;;;53.75;15.32;;;;;;;-1.02;100.00;96759.50;4981225;28;20552;-78
2023/01/24 06:03:11;;;;;;;53.92;14.60;;;;;;;-0.97;100.00;96758.03;4965646;28;20046;-78
2023/01/24 06:05:36;;;;;;;62.20;16.05;;;;;;;-1.02;100.00;96750.00;4991707;28;20043;-78
2023/01/24 06:08:02;;;;;;;49.25;15.40;;;;;;;-0.98;100.00;96764.16;4981265;28;20063;-78
2023/01/24 06:10:27;;;;;;;50.78;15.65;;;;;;;-1.07;100.00;96762.59;4974330;28;20038;-78
2023/01/24 06:12:53;;;;;;;49.00;13.88;;;;;;;-0.96;100.00;96764.84;4973367;28;20035;-78
2023/01/24 06:15:18;;;;;;;61.47;16.35;;;;;;;-1.00;100.00;96758.38;4958536;28;20046;-78
2023/01/24 06:17:44;;;;;;;58.08;15.73;;;;;;;-0.95;100.00;96769.03;4980448;28;20046;-78
2023/01/24 06:20:11;;;;;;;53.53;16.13;;;;;;;-0.98;100.00;96766.75;4976365;28;20445;-78
2023/01/24 06:22:45;;;;;;;47.83;15.27;;;;;;;-0.94;100.00;96762.88;4983235;28;20402;-78
2023/01/24 06:25:20;;;;;;;49.97;15.35;;;;;;;-0.95;100.00;96766.44;4978754;28;20421;-78
2023/01/24 06:27:46;;;;;;;46.63;14.50;;;;;;;-0.88;100.00;96766.56;4967113;28;20042;-78
2023/01/24 06:30:12;;;;;;;52.92;14.95;;;;;;;-0.89;100.00;96770.94;4975409;28;20044;-78
2023/01/24 06:33:03;;;;;;;49.20;14.00;;;;;;;-0.90;100.00;96779.66;4978813;28;20042;-77
2023/01/24 06:35:39;;;;;;;40.50;13.20;;;;;;;-0.91;100.00;96775.47;4975020;28;22355;-77
2023/01/24 06:38:16;;;;;;;52.20;15.73;;;;;;;-0.93;100.00;96790.34;4979240;28;20038;-78
2023/01/24 06:40:42;;;;;;;40.90;14.07;;;;;;;-0.90;100.00;96782.25;4974358;28;20046;-79
2023/01/24 06:43:08;;;;;;;44.95;14.07;;;;;;;-0.88;100.00;96788.06;4962822;28;20113;-79
2023/01/24 06:45:33;;;;;;;50.42;13.68;;;;;;;-0.90;100.00;96792.59;4977287;28;20042;-79
2023/01/24 06:47:59;;;;;;;44.05;14.45;;;;;;;-0.85;100.00;96796.47;4979352;28;20513;-78
2023/01/24 06:50:29;;;;;;;43.97;13.95;;;;;;;-0.84;100.00;96795.50;4981953;28;20042;-77
2023/01/24 06:52:54;;;;;;;47.33;14.80;;;;;;;-0.87;100.00;96794.84;4976826;28;20038;-77
2023/01/24 06:55:20;;;;;;;47.88;14.98;;;;;;;-0.81;100.00;96802.91;4973284;28;20036;-77
2023/01/24 06:57:47;;;;;;;41.83;13.95;;;;;;;-0.87;100.00;96799.22;4978864;28;20082;-77
2023/01/24 07:00:13;;;;;;;44.78;13.82;;;;;;;-0.84;100.00;96803.25;4964624;28;20049;-78
2023/01/24 07:02:39;;;;;;;47.95;14.25;;;;;;;-0.87;100.00;96805.19;4978422;28;20042;-77
2023/01/24 07:05:05;;;;;;;60.72;16.67;;;;;;;-0.85;100.00;96806.81;4979648;28;20495;-72
2023/01/24 07:07:30;;;;;;;68.70;17.33;;;;;;;-0.88;100.00;96808.75;4979642;28;20466;-72
2023/01/24 07:09:56;;;;;;;69.43;18.45;;;;;;;-0.89;100.00;96806.31;4978506;28;20047;-78
2023/01/24 07:12:21;;;;;;;73.82;20.05;;;;;;;-0.94;100.00;96804.22;4977389;28;20070;-77
2023/01/24 07:14:48;;;;;;;80.78;20.38;;;;;;;-0.87;100.00;96805.19;4963236;28;20108;-78
2023/01/24 07:17:14;;;;;;;89.85;20.77;;;;;;;-0.90;100.00;96808.09;4978437;28;20050;-79
2023/01/24 07:19:39;;;;;;;89.75;20.65;;;;;;;-0.94;100.00;96817.16;4983155;28;20053;-77
2023/01/24 07:22:10;;;;;;;89.60;21.48;;;;;;;-0.94;100.00;96813.75;4972148;28;20039;-77
2023/01/24 07:24:36;;;;;;;77.30;20.90;;;;;;;-0.95;100.00;96812.97;4975936;28;20043;-78
2023/01/24 07:27:02;;;;;;;80.47;22.00;;;;;;;-0.89;100.00;96822.63;4982505;28;20038;-80
2023/01/24 07:29:27;;;;;;;93.15;20.77;;;;;;;-0.94;100.00;96818.94;4983486;28;20046;-81
2023/01/24 07:31:53;;;;;;;78.47;21.10;;;;;;;-0.86;100.00;96824.09;4961320;28;20050;-80
2023/01/24 07:34:18;;;;;;;85.47;21.48;;;;;;;-0.91;100.00;96824.56;4975858;28;20046;-79
2023/01/24 07:36:45;;;;;;;102.03;24.17;;;;;;;-0.94;100.00;96830.06;4971312;28;20417;-80
2023/01/24 07:39:11;;;;;;;97.78;22.63;;;;;;;-0.95;100.00;96828.47;4963162;28;20043;-79
2023/01/24 07:41:38;;;;;;;86.82;21.10;;;;;;;-0.90;100.00;96826.19;4981983;28;20470;-79
2023/01/24 07:44:05;;;;;;;89.78;22.52;;;;;;;-0.97;100.00;96825.22;4984054;28;20050;-80
2023/01/24 07:46:35;;;;;;;88.90;20.40;;;;;;;-0.95;100.00;96825.88;4953970;28;20050;-79
2023/01/24 07:49:01;;;;;;;75.13;22.50;;;;;;;-0.91;100.00;96834.09;4964689;28;20513;-77
2023/01/24 07:51:27;;;;;;;88.07;22.17;;;;;;;-0.93;100.00;96826.53;4998049;23;20046;-78
2023/01/24 07:53:52;;;;;;;86.20;21.17;;;;;;;-0.88;100.00;96829.44;4972051;28;20043;-78
2023/01/24 07:56:18;;;;;;;75.03;20.50;;;;;;;-0.89;100.00;96832.97;4957121;28;20516;-78
2023/01/24 07:58:44;;;;;;;79.63;21.45;;;;;;;-0.89;100.00;96838.16;4975911;28;20113;-78
2023/01/24 08:01:14;;;;;;;69.72;19.90;;;;;;;-0.90;100.00;96836.53;4984772;28;20050;-83
2023/01/24 08:03:40;;;;;;;86.57;20.65;;;;;;;-0.84;100.00;96849.78;4989766;28;20677;-83
2023/01/24 08:06:06;;;;;;;80.55;21.40;;;;;;;-0.84;100.00;96847.19;4993437;28;20122;-78
2023/01/24 08:08:31;;;;;;;71.10;19.73;;;;;;;-0.83;100.00;96857.38;4986524;28;20039;-80
2023/01/24 08:10:57;;;;;;;75.50;20.17;;;;;;;-0.81;100.00;96854.59;4967596;28;20042;-82
2023/01/24 08:13:23;;;;;;;70.10;19.35;;;;;;;-0.79;100.00;96865.59;4979561;28;20046;-80
2023/01/24 08:15:48;;;;;;;78.15;19.52;;;;;;;-0.79;100.00;96858.66;4995647;28;20046;-80
2023/01/24 08:18:14;;;;;;;66.28;18.15;;;;;;;-0.81;100.00;96857.19;4991564;28;20465;-80
2023/01/24 08:20:39;;;;;;;67.90;18.17;;;;;;;-0.71;100.00;96868.16;4992795;28;20066;-81
2023/01/24 08:23:05;;;;;;;69.43;18.75;;;;;;;-0.76;100.00;96862.66;4987035;28;20526;-80
2023/01/24 08:25:31;;;;;;;69.38;18.50;;;;;;;-0.79;100.00;96857.81;4989963;28;20097;-81
2023/01/24 08:27:57;;;;;;;62.40;17.52;;;;;;;-0.74;100.00;96860.75;4976302;28;20070;-82
2023/01/24 08:30:23;;;;;;;64.00;18.02;;;;;;;-0.76;100.00;96858.31;4987076;28;20043;-78
2023/01/24 08:32:57;;;;;;;66.22;18.23;;;;;;;-0.74;100.00;96865.91;4990658;28;20053;-80
2023/01/24 08:35:23;;;;;;;68.00;17.77;;;;;;;-0.77;100.00;96861.06;4966949;28;20042;-80
2023/01/24 08:37:48;;;;;;;59.55;17.88;;;;;;;-0.74;100.00;96865.91;4976015;28;20042;-79
2023/01/24 08:40:14;;;;;;;59.45;17.02;;;;;;;-0.76;100.00;96857.50;4974047;28;20055;-78
2023/01/24 08:42:39;;;;;;;62.08;17.02;;;;;;;-0.72;100.00;96869.13;4994049;28;20046;-78
2023/01/24 08:45:05;;;;;;;58.35;16.63;;;;;;;-0.70;100.00;96867.19;4975640;28;20046;-78
2023/01/24 08:47:31;;;;;;;67.85;18.08;;;;;;;-0.72;100.00;96869.13;5000102;28;20046;-80
2023/01/24 08:49:57;;;;;;;57.58;17.05;;;;;;;-0.64;100.00;96871.69;4994440;28;20098;-81
2023/01/24 08:52:22;;;;;;;55.97;16.23;;;;;;;-0.69;100.00;96871.38;4995517;28;20034;-79
2023/01/24 08:54:48;;;;;;;65.30;17.02;;;;;;;-0.67;100.00;96874.63;5000749;28;20053;-80
2023/01/24 08:57:13;;;;;;;51.53;16.40;;;;;;;-0.63;100.00;96873.31;4996663;28;20073;-80
2023/01/24 08:59:39;;;;;;;51.33;15.07;;;;;;;-0.66;100.00;96878.81;4991828;28;20046;-82
2023/01/24 09:02:04;;;;;;;50.63;14.80;;;;;;;-0.65;100.00;96880.41;4966485;28;20035;-80
2023/01/24 09:04:30;;;;;;;52.45;15.90;;;;;;;-0.70;100.00;96874.94;4962105;28;20522;-80
2023/01/24 09:06:55;;;;;;;50.45;14.63;;;;;;;-0.69;100.00;96884.31;4992471;28;20038;-77
2023/01/24 09:09:21;;;;;;;60.88;15.52;;;;;;;-0.65;100.00;96883.00;4994449;28;20042;-78
2023/01/24 09:11:47;;;;;;;55.85;15.20;;;;;;;-0.63;100.00;96878.50;4992463;28;20069;-80
2023/01/24 09:14:12;;;;;;;43.92;14.57;;;;;;;-0.61;100.00;96881.72;4964919;28;20045;-79
2023/01/24 09:16:38;;;;;;;51.97;15.70;;;;;;;-0.61;100.00;96886.09;4975485;28;20058;-80
2023/01/24 09:19:03;;;;;;;51.65;15.25;;;;;;;-0.61;100.00;96886.88;4992526;28;20418;-79
2023/01/24 09:21:29;;;;;;;41.13;14.25;;;;;;;-0.55;100.00;96886.25;4992816;28;20035;-80
2023/01/24 09:23:55;;;;;;;44.58;13.98;;;;;;;-0.56;100.00;96892.38;4995946;28;20107;-77
2023/01/24 09:26:22;;;;;;;43.70;13.85;;;;;;;-0.55;100.00;96891.41;4992475;28;20046;-80
2023/01/24 09:28:47;;;;;;;43.97;14.50;;;;;;;-0.57;100.00;96898.50;4996911;28;20410;-80
2023/01/24 09:31:13;;;;;;;41.97;14.43;;;;;;;-0.60;100.00;96893.69;4969824;28;20042;-81
2023/01/24 09:33:39;;;;;;;52.00;14.93;;;;;;;-0.54;100.00;96903.34;4993806;28;20129;-79
2023/01/24 09:36:04;;;;;;;50.85;15.15;;;;;;;-0.55;100.00;96906.94;4967013;28;20074;-81
2023/01/24 09:38:33;;;;;;;55.63;14.75;;;;;;;-0.62;100.00;96905.94;4994131;28;20042;-80
2023/01/24 09:41:10;;;;;;;51.88;15.80;;;;;;;-0.51;100.00;96907.41;4992097;28;20045;-80
2023/01/24 09:43:50;;;;;;;47.95;13.30;;;;;;;-0.56;100.00;96910.47;4995439;28;20069;-79
2023/01/24 09:46:25;;;;;;;51.28;14.93;;;;;;;-0.56;100.00;96910.47;4969242;28;20046;-77
2023/01/24 09:49:11;;;;;;;;;;;;;;;-0.57;100.00;96908.06;4977879;28;20046;-81
2023/01/24 09:51:43;;;;;;;;;;;;;;;-0.55;100.00;96901.75;4987411;28;19925;-82
2023/01/24 09:54:16;;;;;;;48.53;14.23;;;;;;;-0.50;100.00;96908.19;4993372;28;19925;-81
2023/01/24 09:56:46;;;;;;;40.65;14.85;;;;;;;-0.51;100.00;96906.59;4993058;28;20046;-80
2023/01/24 09:59:16;;;;;;;49.00;14.45;;;;;;;-0.48;100.00;96907.06;4976216;28;20030;-80
2023/01/24 10:01:42;;;;;;;54.00;14.45;;;;;;;-0.47;100.00;96903.50;4991853;28;20034;-80
2023/01/24 10:04:18;;;;;;;50.40;15.23;;;;;;;-0.46;100.00;96904.31;4995615;28;20043;-79
2023/01/24 10:07:29;;;;;;;52.60;16.42;;;;;;;-0.53;100.00;96910.16;4981768;28;20042;-80
2023/01/24 10:10:39;;;;;;;45.42;15.43;;;;;;;-0.47;100.00;96902.72;4977734;28;20106;-83
2023/01/24 10:13:29;;;;;;;57.17;17.40;;;;;;;-0.43;100.00;96914.31;5039229;23;20034;-81
2023/01/24 10:16:26;;;;;;;46.78;16.08;;;;;;;-0.45;100.00;96916.28;5021067;23;20031;-79
2023/01/24 10:19:23;;;;;;;44.85;14.82;;;;;;;-0.35;100.00;96912.53;4989063;28;20023;-79
2023/01/24 10:21:59;;;;;;;50.33;14.27;;;;;;;-0.43;100.00;96909.16;5008413;28;20030;-78
2023/01/24 10:24:30;;;;;;;46.30;14.52;;;;;;;-0.43;100.00;96909.16;5000009;28;20031;-79
2023/01/24 10:26:56;;;;;;;48.85;15.95;;;;;;;-0.42;100.00;96900.41;4996506;28;20054;-79
2023/01/24 10:29:25;;;;;;;58.85;15.75;;;;;;;-0.41;100.00;96902.84;4987309;28;20086;-79
2023/01/24 10:32:03;;;;;;;44.55;14.63;;;;;;;-0.39;100.00;96907.84;4971468;28;20059;-80
2023/01/24 10:34:34;;;;;;;49.20;15.15;;;;;;;-0.41;100.00;96896.88;4964277;28;20098;-82
2023/01/24 10:37:05;;;;;;;43.88;14.98;;;;;;;-0.40;100.00;96908.84;4961596;28;20043;-80
2023/01/24 10:39:31;;;;;;;44.35;14.90;;;;;;;-0.38;100.00;96901.72;4958572;28;20047;-80
2023/01/24 10:41:56;;;;;;;36.35;13.65;;;;;;;-0.42;100.00;96895.25;4960469;28;20065;-78
2023/01/24 10:44:29;;;;;;;37.47;13.93;;;;;;;-0.38;100.00;96899.13;4966833;28;20039;-78
2023/01/24 10:47:18;;;;;;;46.38;15.90;;;;;;;-0.33;100.00;96899.44;4953081;28;20039;-79
2023/01/24 10:49:53;;;;;;;47.97;15.27;;;;;;;-0.41;100.00;96907.22;4955058;28;20038;-82
2023/01/24 10:52:20;;;;;;;51.22;15.40;;;;;;;-0.41;100.00;96902.03;4959618;28;20039;-82
2023/01/24 10:54:54;;;;;;;47.65;16.02;;;;;;;-0.29;100.00;96900.69;4954495;28;20104;-82
2023/01/24 10:57:32;;;;;;;51.08;15.80;;;;;;;-0.30;100.00;96888.75;4969587;28;20687;-83
2023/01/24 11:00:22;;;;;;;47.40;14.98;;;;;;;-0.30;100.00;96893.94;4971797;28;20119;-82
2023/01/24 11:02:50;;;;;;;46.65;16.13;;;;;;;-0.30;100.00;96886.19;4966206;28;20042;-81
2023/01/24 11:05:18;;;;;;;47.30;15.18;;;;;;;-0.34;100.00;96887.47;4960230;28;20128;-84
2023/01/24 11:08:06;;;;;;;49.30;15.55;;;;;;;-0.31;100.00;96884.56;4961605;28;20046;-81
2023/01/24 11:10:37;;;;;;;36.90;13.18;;;;;;;-0.29;100.00;96877.41;4968984;28;20058;-81
2023/01/24 11:13:21;;;;;;;40.42;14.68;;;;;;;-0.28;100.00;96881.63;4949827;28;20088;-82
2023/01/24 11:15:51;;;;;;;47.60;14.98;;;;;;;-0.23;100.00;96888.88;4948583;28;20461;-83
2023/01/24 11:18:23;;;;;;;44.85;14.63;;;;;;;-0.25;100.00;96876.13;4962569;28;20038;-81
2023/01/24 11:21:09;;;;;;;44.00;14.98;;;;;;;-0.22;100.00;96880.94;4967667;28;20043;-83
2023/01/24 11:23:35;;;;;;;47.70;15.98;;;;;;;-0.23;100.00;96884.53;4964983;28;20098;-82
2023/01/24 11:26:04;;;;;;;52.88;17.80;;;;;;;-0.27;100.00;96865.13;4974505;28;20047;-83
2023/01/24 11:28:32;;;;;;;45.13;16.27;;;;;;;-0.21;100.00;96880.00;4955738;28;20454;-83
2023/01/24 11:31:14;;;;;;;44.58;16.20;;;;;;;-0.18;100.00;96874.47;4977449;28;20118;-82
2023/01/24 11:34:04;;;;;;;41.55;15.23;;;;;;;-0.11;100.00;96873.81;4957475;28;20043;-83
2023/01/24 11:36:44;;;;;;;49.45;16.65;;;;;;;-0.10;100.00;96872.84;4964710;28;20422;-79
2023/01/24 11:39:48;;;;;;;44.95;16.38;;;;;;;-0.16;100.00;96878.69;4970449;28;20047;-80
2023/01/24 11:42:23;;;;;;;50.17;16.67;;;;;;;-0.13;100.00;96873.16;4964230;28;20118;-76
2023/01/24 11:44:58;;;;;;;44.88;16.45;;;;;;;-0.18;100.00;96871.88;4970051;28;20051;-81
2023/01/24 11:47:28;;;;;;;;;;;;;;;-0.14;100.00;96863.78;4972320;28;20126;-78
2023/01/24 11:50:03;;;;;;;48.85;16.80;;;;;;;-0.11;100.00;96866.06;4972013;28;19926;-79
2023/01/24 11:52:40;;;;;;;53.38;17.35;;;;;;;-0.18;100.00;96871.88;4966221;28;20118;-82
2023/01/24 11:55:13;;;;;;;51.92;16.60;;;;;;;-0.16;100.00;96868.34;4973529;28;20487;-81